Time;durP1;ratioP1;P1;durP2;ratioP2;P2;SDS_P1;SDS_P2;PMS_P1;PMS_P2;Temp;Humidity;BMP_temperature;BMP_pressure;BME280_temperature;BME280_humidity;BME280_pressure;Samples;Min_cycle;Max_cycle;Signal;HPM_P1;HPM_P2
2022/03/24 00:02:06;;;;;;;18.48;12.15;;;11.50;90.70;;;;;;5076282;28;20052;-79
2022/03/24 00:04:32;;;;;;;14.98;11.38;;;11.50;90.70;;;;;;5094140;28;20523;-79
2022/03/24 00:06:58;;;;;;;18.50;11.90;;;11.60;90.70;;;;;;5075844;28;20483;-79
2022/03/24 00:09:24;;;;;;;17.88;12.25;;;11.50;90.70;;;;;;5075899;28;20016;-79
2022/03/24 00:11:49;;;;;;;17.38;11.60;;;11.50;90.70;;;;;;5094256;28;20028;-79
2022/03/24 00:14:18;;;;;;;20.27;12.25;;;11.50;90.80;;;;;;5094009;28;20020;-79
2022/03/24 00:16:43;;;;;;;17.67;12.20;;;11.50;90.80;;;;;;5075862;28;20027;-79
2022/03/24 00:19:09;;;;;;;18.90;12.45;;;11.40;90.80;;;;;;5093810;28;20028;-79
2022/03/24 00:21:36;;;;;;;20.52;11.32;;;11.40;90.80;;;;;;5035601;28;1151946;-79
2022/03/24 00:24:02;;;;;;;17.13;11.57;;;11.40;90.80;;;;;;5076745;28;20028;-79
2022/03/24 00:26:27;;;;;;;20.92;12.00;;;11.40;90.80;;;;;;5076461;28;20050;-79
2022/03/24 00:28:53;;;;;;;16.75;11.18;;;11.40;90.80;;;;;;5094701;28;20031;-79
2022/03/24 00:31:19;;;;;;;19.73;11.68;;;11.40;90.90;;;;;;5076393;28;20024;-79
2022/03/24 00:33:45;;;;;;;14.02;11.02;;;11.40;90.90;;;;;;5076412;28;20051;-79
2022/03/24 00:36:14;;;;;;;17.00;11.65;;;11.40;90.90;;;;;;5094582;28;20032;-79
2022/03/24 00:38:40;;;;;;;17.95;11.48;;;11.40;90.90;;;;;;5094487;28;20028;-78
2022/03/24 00:41:06;;;;;;;16.77;11.73;;;11.30;90.90;;;;;;5094447;28;20027;-79
2022/03/24 00:43:33;;;;;;;16.42;10.85;;;11.30;90.90;;;;;;5076192;28;20202;-79
2022/03/24 00:45:59;;;;;;;14.52;10.73;;;11.30;90.90;;;;;;5076426;28;20032;-79
2022/03/24 00:48:25;;;;;;;16.95;11.15;;;11.30;90.90;;;;;;5076527;28;20123;-79
2022/03/24 00:50:52;;;;;;;18.98;11.27;;;11.30;90.90;;;;;;5075590;28;20035;-78
2022/03/24 00:53:18;;;;;;;17.42;10.93;;;11.30;91.00;;;;;;5076413;28;20030;-79
2022/03/24 00:55:43;;;;;;;20.35;11.82;;;11.30;91.00;;;;;;5076351;28;20073;-79
2022/03/24 00:58:10;;;;;;;17.50;11.30;;;11.20;91.00;;;;;;5094493;28;20032;-79
2022/03/24 01:00:38;;;;;;;18.42;11.63;;;11.30;91.00;;;;;;5076290;28;20483;-79
2022/03/24 01:03:07;;;;;;;20.38;11.43;;;11.20;91.00;;;;;;5094405;28;20047;-79
2022/03/24 01:05:37;;;;;;;17.40;10.98;;;11.20;91.00;;;;;;5076145;28;20514;-79
2022/03/24 01:08:05;;;;;;;17.30;11.43;;;11.20;91.00;;;;;;5076163;28;20038;-79
2022/03/24 01:10:32;;;;;;;17.75;11.02;;;11.20;91.00;;;;;;5075853;28;20110;-79
2022/03/24 01:12:59;;;;;;;16.52;11.70;;;11.20;91.00;;;;;;5093967;28;20028;-79
2022/03/24 01:15:25;;;;;;;17.15;11.43;;;11.20;91.00;;;;;;5075754;28;20020;-79
2022/03/24 01:17:51;;;;;;;17.23;10.73;;;11.20;91.10;;;;;;5075624;28;20020;-79
2022/03/24 01:20:18;;;;;;;16.25;11.48;;;11.10;91.00;;;;;;5093566;28;20047;-79
2022/03/24 01:22:44;;;;;;;14.77;10.45;;;11.10;91.00;;;;;;5075582;28;20031;-79
2022/03/24 01:25:10;;;;;;;15.07;10.98;;;11.10;91.10;;;;;;5093702;28;20024;-79
2022/03/24 01:27:38;;;;;;;18.38;11.95;;;11.10;91.10;;;;;;5093947;28;20034;-79
2022/03/24 01:30:05;;;;;;;15.73;11.43;;;11.10;91.10;;;;;;5093615;28;20027;-79
2022/03/24 01:32:31;;;;;;;15.77;10.57;;;11.10;91.10;;;;;;5075376;28;20170;-79
2022/03/24 01:34:57;;;;;;;15.02;10.95;;;11.10;91.20;;;;;;5093511;28;20027;-79
2022/03/24 01:37:23;;;;;;;17.02;11.80;;;11.10;91.20;;;;;;5075410;28;20020;-79
2022/03/24 01:39:50;;;;;;;21.92;11.35;;;11.00;91.10;;;;;;5075335;28;20513;-78
2022/03/24 01:42:17;;;;;;;14.90;10.38;;;11.00;91.50;;;;;;5075292;28;20119;-79
2022/03/24 01:44:46;;;;;;;17.92;11.30;;;11.00;91.10;;;;;;5075223;28;20071;-79
2022/03/24 01:47:12;;;;;;;14.23;10.45;;;11.00;91.20;;;;;;5075164;28;20081;-79
2022/03/24 01:49:41;;;;;;;16.55;10.75;;;11.00;91.20;;;;;;5075270;28;20083;-79
2022/03/24 01:52:10;;;;;;;20.40;10.98;;;11.00;91.20;;;;;;5093762;28;20028;-79
2022/03/24 01:54:39;;;;;;;18.88;10.88;;;11.00;91.20;;;;;;5075420;28;20093;-79
2022/03/24 01:57:07;;;;;;;18.13;11.00;;;11.00;91.20;;;;;;5093506;28;20016;-79
2022/03/24 01:59:37;;;;;;;13.85;10.18;;;11.00;91.20;;;;;;5075292;28;20020;-79
2022/03/24 02:02:04;;;;;;;20.02;10.50;;;10.90;91.20;;;;;;5075105;28;20076;-79
2022/03/24 02:04:30;;;;;;;15.40;11.32;;;10.90;91.20;;;;;;5075341;28;20115;-79
2022/03/24 02:06:56;;;;;;;18.45;10.25;;;10.90;91.30;;;;;;5075203;28;20030;-78
2022/03/24 02:09:22;;;;;;;15.50;10.88;;;10.90;91.30;;;;;;5093320;28;20020;-79
2022/03/24 02:11:48;;;;;;;15.50;10.52;;;10.90;91.30;;;;;;5093182;28;20027;-79
2022/03/24 02:14:14;;;;;;;14.68;10.48;;;10.90;91.30;;;;;;5093150;28;20035;-79
2022/03/24 02:16:41;;;;;;;18.35;10.90;;;10.90;91.30;;;;;;5092932;28;20020;-79
2022/03/24 02:19:15;;;;;;;15.15;10.82;;;10.90;91.30;;;;;;5074768;28;20025;-78
2022/03/24 02:21:44;;;;;;;18.08;11.43;;;10.80;91.30;;;;;;5093003;28;20044;-79
2022/03/24 02:24:15;;;;;;;14.95;10.32;;;10.80;91.30;;;;;;5093065;28;20036;-79
2022/03/24 02:26:42;;;;;;;13.95;10.10;;;10.80;91.30;;;;;;5075072;28;20056;-79
2022/03/24 02:29:10;;;;;;;14.88;10.90;;;10.80;91.30;;;;;;5074803;28;20028;-79
2022/03/24 02:31:44;;;;;;;17.00;11.18;;;10.80;91.40;;;;;;5092972;28;20050;-79
2022/03/24 02:36:56;;;;;;;15.38;10.68;;;10.80;91.40;;;;;;5093127;28;19953;-79
2022/03/24 02:39:22;;;;;;;15.73;10.50;;;10.70;91.30;;;;;;5074533;28;20029;-79
2022/03/24 02:41:56;;;;;;;15.38;11.02;;;10.70;91.40;;;;;;5074929;28;20089;-79
2022/03/24 02:44:24;;;;;;;16.92;10.73;;;10.70;91.40;;;;;;5093008;28;20055;-79
2022/03/24 02:46:54;;;;;;;14.60;10.20;;;10.70;91.40;;;;;;5074830;28;20028;-79
2022/03/24 02:49:24;;;;;;;18.05;10.77;;;10.70;91.40;;;;;;5075027;28;20506;-79
2022/03/24 02:51:55;;;;;;;17.52;10.48;;;10.70;91.40;;;;;;5092572;28;20028;-79
2022/03/24 02:54:22;;;;;;;18.58;10.77;;;10.70;91.50;;;;;;5074514;28;20024;-79
2022/03/24 02:56:48;;;;;;;16.90;10.93;;;10.60;91.50;;;;;;5074458;28;20070;-79
2022/03/24 02:59:15;;;;;;;13.63;10.30;;;10.70;91.50;;;;;;5074579;28;20024;-78
2022/03/24 03:01:45;;;;;;;15.10;10.65;;;10.60;91.50;;;;;;5092707;28;20039;-79
2022/03/24 03:04:12;;;;;;;17.25;10.43;;;10.60;91.50;;;;;;5093004;28;20387;-79
2022/03/24 03:06:38;;;;;;;15.20;10.63;;;10.60;91.50;;;;;;5074455;28;20028;-78
2022/03/24 03:09:05;;;;;;;13.30;9.52;;;10.60;91.50;;;;;;5074546;28;20503;-78
2022/03/24 03:11:31;;;;;;;14.88;9.70;;;10.60;91.90;;;;;;5074368;28;20031;-79
2022/03/24 03:13:58;;;;;;;16.63;10.63;;;10.60;91.60;;;;;;5076287;28;20024;-79
2022/03/24 03:16:25;;;;;;;15.55;10.77;;;10.60;91.60;;;;;;5096419;28;20098;-79
2022/03/24 03:18:55;;;;;;;13.57;10.48;;;10.50;91.50;;;;;;5077958;28;20020;-79
2022/03/24 03:21:21;;;;;;;16.20;10.68;;;10.50;91.60;;;;;;5077932;28;20392;-79
2022/03/24 03:23:47;;;;;;;14.60;10.13;;;10.50;91.60;;;;;;5077925;28;20127;-78
2022/03/24 03:26:17;;;;;;;15.90;10.50;;;10.50;91.60;;;;;;5096334;28;20056;-78
2022/03/24 03:28:44;;;;;;;17.42;10.43;;;10.50;91.60;;;;;;5077858;28;20394;-78
2022/03/24 03:31:10;;;;;;;16.20;11.10;;;10.50;91.60;;;;;;5077755;28;20020;-79
2022/03/24 03:33:36;;;;;;;16.67;9.90;;;10.50;91.60;;;;;;5077741;28;20089;-80
2022/03/24 03:36:03;;;;;;;13.45;10.32;;;10.50;91.60;;;;;;5077717;28;20034;-80
2022/03/24 03:38:30;;;;;;;16.55;10.60;;;10.40;91.60;;;;;;5077685;28;20024;-80
2022/03/24 03:40:59;;;;;;;15.27;10.43;;;10.40;91.60;;;;;;5077590;28;20464;-80
2022/03/24 03:43:26;;;;;;;17.17;10.20;;;10.40;91.60;;;;;;5077599;28;20020;-80
2022/03/24 03:45:52;;;;;;;16.35;10.10;;;10.40;91.60;;;;;;5095775;28;20058;-80
2022/03/24 03:48:17;;;;;;;16.60;10.32;;;10.40;91.60;;;;;;5077534;28;20067;-80
2022/03/24 03:50:43;;;;;;;12.88;9.68;;;10.40;91.60;;;;;;5077392;28;20020;-80
2022/03/24 03:53:09;;;;;;;12.70;9.77;;;10.40;91.70;;;;;;5095584;28;20027;-81
2022/03/24 03:55:38;;;;;;;13.95;9.73;;;10.40;91.70;;;;;;5095542;28;20472;-80
2022/03/24 03:58:05;;;;;;;13.57;9.60;;;10.40;91.70;;;;;;5095488;28;20023;-80
2022/03/24 04:03:15;;;;;;;13.32;9.75;;;10.30;91.70;;;;;;5095661;28;20035;-80
2022/03/24 04:05:43;;;;;;;13.13;9.60;;;10.30;91.70;;;;;;5077114;28;20452;-80
2022/03/24 04:08:10;;;;;;;15.35;10.07;;;10.30;91.70;;;;;;5077096;28;20027;-81
2022/03/24 04:10:38;;;;;;;13.40;9.73;;;10.30;91.70;;;;;;5095701;28;20111;-81
2022/03/24 04:13:04;;;;;;;13.98;10.13;;;10.30;91.70;;;;;;5095138;28;20016;-81
2022/03/24 04:15:31;;;;;;;13.35;9.52;;;10.30;91.70;;;;;;5076957;28;20495;-80
2022/03/24 04:17:56;;;;;;;15.07;9.88;;;10.30;91.80;;;;;;5095049;28;20486;-80
2022/03/24 04:20:22;;;;;;;13.98;9.35;;;10.30;91.80;;;;;;5076713;28;20048;-80
2022/03/24 04:22:52;;;;;;;16.25;10.65;;;10.30;91.80;;;;;;5076869;28;20060;-80
2022/03/24 04:25:18;;;;;;;14.18;9.88;;;10.20;91.80;;;;;;5093685;28;20038;-80
2022/03/24 04:27:44;;;;;;;14.52;9.77;;;10.20;91.80;;;;;;5076811;28;20031;-80
2022/03/24 04:30:14;;;;;;;12.88;9.05;;;10.20;91.80;;;;;;5076633;28;20054;-80
2022/03/24 04:32:40;;;;;;;11.82;9.43;;;10.20;91.80;;;;;;5095050;28;20099;-80
2022/03/24 04:35:07;;;;;;;14.40;10.18;;;10.20;91.80;;;;;;5094958;28;20040;-80
2022/03/24 04:37:33;;;;;;;13.15;9.20;;;10.20;91.80;;;;;;5076396;28;20020;-79
2022/03/24 04:39:59;;;;;;;13.18;9.77;;;10.20;91.80;;;;;;5077206;28;20379;-80
2022/03/24 04:42:24;;;;;;;14.00;10.38;;;10.20;91.80;;;;;;5094546;28;20012;-80
2022/03/24 04:44:50;;;;;;;14.10;10.02;;;10.10;91.80;;;;;;5094532;28;20395;-80
2022/03/24 04:47:17;;;;;;;14.05;9.60;;;10.10;91.80;;;;;;5076862;28;20020;-80
2022/03/24 04:49:43;;;;;;;13.63;10.15;;;10.10;91.80;;;;;;5076250;28;20020;-80
2022/03/24 04:52:09;;;;;;;15.15;10.20;;;10.10;91.80;;;;;;5076144;28;20082;-80
2022/03/24 04:54:35;;;;;;;15.15;10.10;;;10.10;91.80;;;;;;5094333;28;20051;-80
2022/03/24 04:57:01;;;;;;;14.65;9.90;;;10.10;91.80;;;;;;5076150;28;20024;-80
2022/03/24 04:59:27;;;;;;;12.60;9.35;;;10.00;91.80;;;;;;5076203;28;20023;-80
2022/03/24 05:01:53;;;;;;;17.63;10.05;;;10.10;91.80;;;;;;5076174;28;20135;-79
2022/03/24 05:04:18;;;;;;;14.90;10.10;;;10.10;91.90;;;;;;5076048;28;20178;-80
2022/03/24 05:06:44;;;;;;;12.82;9.38;;;10.10;91.90;;;;;;5094283;28;20027;-80
2022/03/24 05:09:09;;;;;;;18.45;10.48;;;10.00;91.90;;;;;;5076058;28;20059;-80
2022/03/24 05:11:35;;;;;;;17.85;10.13;;;10.00;91.80;;;;;;5075895;28;20110;-80
2022/03/24 05:14:04;;;;;;;13.88;10.07;;;10.00;91.80;;;;;;5075815;28;20486;-79
2022/03/24 05:16:30;;;;;;;14.43;9.80;;;10.00;91.90;;;;;;5075721;28;20027;-80
2022/03/24 05:18:56;;;;;;;15.52;10.07;;;10.00;91.90;;;;;;5093843;28;20073;-80
2022/03/24 05:21:21;;;;;;;16.90;9.57;;;10.00;91.90;;;;;;5075445;28;20048;-80
2022/03/24 05:23:47;;;;;;;15.27;10.50;;;10.00;91.90;;;;;;5075696;28;20028;-80
2022/03/24 05:26:13;;;;;;;13.68;9.80;;;10.00;91.90;;;;;;5075599;28;20025;-79
2022/03/24 05:28:39;;;;;;;13.45;9.88;;;10.00;91.90;;;;;;5075553;28;20032;-80
2022/03/24 05:31:05;;;;;;;14.90;9.82;;;10.00;91.90;;;;;;5094089;28;20101;-80
2022/03/24 05:33:33;;;;;;;15.20;10.60;;;10.00;91.90;;;;;;5075487;28;20460;-80
2022/03/24 05:35:59;;;;;;;13.25;9.90;;;10.00;91.90;;;;;;5093285;28;20069;-80
2022/03/24 05:38:26;;;;;;;16.85;9.77;;;10.00;91.90;;;;;;5075441;28;20406;-79
2022/03/24 05:40:52;;;;;;;17.13;9.50;;;10.00;91.90;;;;;;5075375;28;20055;-79
2022/03/24 05:43:17;;;;;;;13.02;9.05;;;9.90;91.90;;;;;;5075405;28;20522;-80
2022/03/24 05:45:43;;;;;;;13.32;8.95;;;9.90;91.90;;;;;;5093725;28;20103;-80
2022/03/24 05:48:09;;;;;;;16.13;10.35;;;9.90;91.90;;;;;;5075373;28;20111;-80
2022/03/24 05:50:35;;;;;;;15.65;9.50;;;9.90;91.90;;;;;;5075168;28;20050;-80
2022/03/24 05:53:01;;;;;;;14.57;9.90;;;9.90;91.90;;;;;;5075183;28;20021;-79
2022/03/24 05:55:27;;;;;;;14.68;10.18;;;10.00;91.90;;;;;;5093364;28;20044;-79
2022/03/24 05:57:55;;;;;;;13.38;10.05;;;9.90;91.90;;;;;;5093321;28;20024;-81
2022/03/24 06:00:21;;;;;;;14.90;10.60;;;9.90;91.90;;;;;;5093187;28;20056;-79
2022/03/24 06:02:47;;;;;;;14.93;10.52;;;9.90;91.90;;;;;;5075094;28;20085;-80
2022/03/24 06:05:14;;;;;;;12.38;9.32;;;9.90;91.90;;;;;;5075073;28;20060;-80
2022/03/24 06:07:40;;;;;;;14.18;9.90;;;9.90;92.00;;;;;;5093427;28;20024;-80
2022/03/24 06:10:07;;;;;;;14.38;9.93;;;9.90;91.90;;;;;;5074602;28;20040;-79
2022/03/24 06:12:37;;;;;;;12.63;9.40;;;9.90;91.90;;;;;;5075406;28;20067;-80
2022/03/24 06:15:04;;;;;;;12.45;9.35;;;9.90;92.00;;;;;;5093268;28;20020;-80
2022/03/24 06:17:30;;;;;;;13.52;9.80;;;9.90;91.90;;;;;;5074922;28;20028;-80
2022/03/24 06:19:55;;;;;;;13.70;9.73;;;10.00;91.90;;;;;;5092823;28;20020;-80
2022/03/24 06:22:21;;;;;;;14.68;9.30;;;10.00;91.90;;;;;;5075046;28;20020;-80
2022/03/24 06:24:47;;;;;;;14.13;9.65;;;10.00;91.90;;;;;;5074935;28;20024;-79
2022/03/24 06:27:12;;;;;;;18.10;10.00;;;10.00;91.90;;;;;;5093165;28;20016;-80
2022/03/24 06:29:38;;;;;;;14.98;9.63;;;10.10;92.00;;;;;;5074822;28;20035;-80
2022/03/24 06:32:06;;;;;;;15.07;9.85;;;10.10;91.90;;;;;;5092832;28;20074;-80
2022/03/24 06:34:32;;;;;;;13.30;9.13;;;10.10;91.90;;;;;;5092877;28;20024;-80
2022/03/24 06:36:57;;;;;;;13.98;9.20;;;10.10;91.90;;;;;;5074764;28;20024;-79
2022/03/24 06:39:23;;;;;;;14.20;9.85;;;10.20;91.90;;;;;;5074768;28;20447;-80
2022/03/24 06:41:49;;;;;;;13.35;9.00;;;10.20;91.90;;;;;;5074585;28;20077;-80
2022/03/24 06:44:15;;;;;;;13.02;9.02;;;10.30;91.90;;;;;;5075093;28;20036;-80
2022/03/24 06:46:41;;;;;;;14.13;9.48;;;10.20;91.90;;;;;;5092649;28;20411;-80
2022/03/24 06:49:07;;;;;;;15.80;9.65;;;10.30;91.80;;;;;;5076604;28;20024;-80
2022/03/24 06:51:34;;;;;;;12.45;8.38;;;10.40;91.80;;;;;;5078270;28;20487;-80
2022/03/24 06:54:04;;;;;;;13.15;9.20;;;10.40;91.90;;;;;;5078325;28;20021;-80
2022/03/24 06:56:30;;;;;;;13.70;9.30;;;10.40;91.80;;;;;;5096478;28;20027;-80
2022/03/24 06:58:55;;;;;;;13.43;9.23;;;10.50;91.80;;;;;;5078214;28;20024;-80
2022/03/24 07:01:21;;;;;;;15.50;9.63;;;10.50;91.70;;;;;;5078193;28;20035;-80
2022/03/24 07:03:47;;;;;;;14.18;9.65;;;10.50;91.70;;;;;;5096645;28;20494;-80
2022/03/24 07:06:13;;;;;;;13.60;9.10;;;10.60;91.70;;;;;;5078091;28;20020;-79
2022/03/24 07:08:39;;;;;;;14.57;9.65;;;10.70;91.70;;;;;;5096328;28;20096;-80
2022/03/24 07:11:06;;;;;;;13.70;8.77;;;10.70;91.70;;;;;;5096186;28;20028;-80
2022/03/24 07:13:32;;;;;;;15.95;8.73;;;10.70;91.60;;;;;;5077843;28;20028;-80
2022/03/24 07:15:58;;;;;;;13.13;8.75;;;10.80;91.70;;;;;;5096102;28;20043;-80
2022/03/24 07:18:24;;;;;;;12.98;8.88;;;10.80;91.70;;;;;;5096035;28;20471;-79
2022/03/24 07:20:50;;;;;;;13.18;8.73;;;10.80;91.70;;;;;;5074376;28;20059;-79
2022/03/24 07:23:17;;;;;;;12.52;8.55;;;10.90;91.70;;;;;;5091669;28;20029;-80
2022/03/24 07:25:42;;;;;;;11.77;9.25;;;10.90;91.70;;;;;;5075714;28;20025;-80
2022/03/24 07:28:10;;;;;;;12.68;8.45;;;10.90;91.60;;;;;;5091345;28;20029;-80
2022/03/24 07:30:37;;;;;;;12.43;8.63;;;11.00;91.70;;;;;;5091158;28;20078;-79
2022/03/24 07:33:04;;;;;;;12.40;8.38;;;11.00;91.70;;;;;;5091175;28;20476;-79
2022/03/24 07:35:32;;;;;;;11.20;7.97;;;11.10;91.60;;;;;;5091190;28;20016;-80
2022/03/24 07:37:58;;;;;;;11.82;8.65;;;11.10;91.60;;;;;;5075790;28;20021;-80
2022/03/24 07:40:24;;;;;;;11.10;8.90;;;11.10;91.60;;;;;;5091427;28;20024;-80
2022/03/24 07:42:56;;;;;;;11.30;8.23;;;11.20;91.60;;;;;;5091374;28;20086;-80
2022/03/24 07:45:25;;;;;;;11.07;8.02;;;11.20;91.60;;;;;;5075481;28;20020;-80
2022/03/24 07:48:11;;;;;;;15.23;8.48;;;11.30;91.60;;;;;;5090985;28;20127;-81
2022/03/24 07:50:38;;;;;;;11.90;8.10;;;11.30;91.60;;;;;;5091042;28;20050;-80
2022/03/24 07:53:22;;;;;;;13.00;8.57;;;11.30;91.60;;;;;;5090818;28;20166;-80
2022/03/24 07:55:48;;;;;;;14.23;8.60;;;11.40;91.60;;;;;;5090880;28;20020;-80
2022/03/24 07:58:16;;;;;;;13.40;7.85;;;11.40;91.60;;;;;;5090767;28;20021;-80
2022/03/24 08:00:43;;;;;;;12.02;7.93;;;11.50;91.60;;;;;;5090420;28;20028;-80
2022/03/24 08:03:20;;;;;;;9.93;7.55;;;11.50;91.50;;;;;;5090726;28;20082;-79
2022/03/24 08:05:47;;;;;;;12.18;8.68;;;11.60;91.50;;;;;;5075120;28;20126;-80
2022/03/24 08:08:14;;;;;;;11.40;7.50;;;11.60;91.50;;;;;;5075034;28;20052;-79
2022/03/24 08:10:41;;;;;;;11.13;7.85;;;11.60;91.40;;;;;;5090360;28;20502;-79
2022/03/24 08:13:08;;;;;;;14.48;8.15;;;11.70;91.40;;;;;;5074955;28;20032;-79
2022/03/24 08:15:36;;;;;;;11.13;8.15;;;11.70;91.30;;;;;;5090471;28;20043;-79
2022/03/24 08:18:04;;;;;;;13.52;7.97;;;11.80;91.30;;;;;;5090360;28;20112;-79
2022/03/24 08:20:30;;;;;;;12.50;7.75;;;11.80;91.20;;;;;;5080106;28;20036;-78
2022/03/24 08:22:56;;;;;;;9.40;6.95;;;11.80;91.20;;;;;;5076771;28;20043;-78
2022/03/24 08:25:21;;;;;;;11.23;7.68;;;11.90;91.20;;;;;;5076692;28;20024;-79
2022/03/24 08:27:47;;;;;;;15.27;8.73;;;11.90;91.20;;;;;;5076700;28;20514;-79
2022/03/24 08:30:13;;;;;;;11.32;7.70;;;11.90;91.10;;;;;;5094729;28;20024;-79
2022/03/24 08:32:39;;;;;;;11.88;7.53;;;12.00;91.10;;;;;;5076531;28;20039;-80
2022/03/24 08:35:06;;;;;;;10.93;7.55;;;12.00;90.90;;;;;;5094745;28;20024;-78
2022/03/24 08:37:32;;;;;;;11.18;7.43;;;12.10;91.00;;;;;;5094547;28;20369;-78
2022/03/24 08:39:57;;;;;;;12.15;7.63;;;12.10;90.90;;;;;;5076420;28;20028;-78
2022/03/24 08:42:23;;;;;;;10.02;6.90;;;12.20;90.80;;;;;;5076418;28;20161;-79
2022/03/24 08:44:49;;;;;;;12.98;7.93;;;12.20;90.80;;;;;;5076385;28;20372;-79
2022/03/24 08:47:15;;;;;;;9.85;7.15;;;12.20;90.60;;;;;;5094458;28;20031;-79
2022/03/24 08:49:41;;;;;;;10.82;7.05;;;12.30;90.40;;;;;;5076165;28;20034;-79
2022/03/24 08:52:07;;;;;;;14.75;7.50;;;12.30;90.50;;;;;;5076381;28;20024;-79
2022/03/24 08:54:33;;;;;;;10.68;8.18;;;12.30;90.50;;;;;;5094161;28;20535;-78
2022/03/24 08:56:59;;;;;;;11.55;7.60;;;12.40;90.40;;;;;;5094245;28;20078;-79
2022/03/24 08:59:24;;;;;;;10.48;7.30;;;12.40;90.40;;;;;;5076093;28;20039;-78
2022/03/24 09:01:50;;;;;;;10.88;7.35;;;12.50;90.30;;;;;;5094366;28;20093;-79
2022/03/24 09:04:17;;;;;;;11.10;7.70;;;12.50;90.10;;;;;;5094161;28;20058;-79
2022/03/24 09:06:44;;;;;;;14.05;7.93;;;12.50;90.10;;;;;;5075839;28;20027;-79
2022/03/24 09:09:10;;;;;;;10.77;7.05;;;12.50;90.10;;;;;;5075882;28;20390;-79
2022/03/24 09:11:35;;;;;;;15.52;7.47;;;12.60;90.10;;;;;;5075147;28;20020;-79
2022/03/24 09:14:01;;;;;;;13.90;7.78;;;12.60;90.00;;;;;;5075811;28;20020;-79
2022/03/24 09:16:27;;;;;;;12.68;7.90;;;12.70;90.00;;;;;;5093923;28;20091;-79
2022/03/24 09:18:52;;;;;;;11.13;7.57;;;12.70;90.00;;;;;;5075506;28;20388;-79
2022/03/24 09:21:18;;;;;;;12.05;7.28;;;12.70;90.00;;;;;;5075170;28;20094;-79
2022/03/24 09:23:44;;;;;;;14.90;7.68;;;12.70;90.00;;;;;;5075514;28;20505;-79
2022/03/24 09:26:12;;;;;;;11.95;7.40;;;12.80;90.00;;;;;;5093720;28;20060;-79
2022/03/24 09:28:37;;;;;;;11.63;8.15;;;12.80;89.90;;;;;;5075490;28;20111;-79
2022/03/24 09:31:03;;;;;;;13.55;8.07;;;12.80;89.90;;;;;;5093568;28;20593;-79
2022/03/24 09:33:29;;;;;;;10.50;7.75;;;12.90;89.80;;;;;;5075462;28;20480;-79
2022/03/24 09:35:54;;;;;;;11.30;7.47;;;12.90;89.60;;;;;;5075387;28;20107;-79
2022/03/24 09:38:20;;;;;;;11.20;7.22;;;13.00;89.70;;;;;;5093474;28;20491;-79
2022/03/24 09:40:46;;;;;;;11.50;7.80;;;13.00;89.40;;;;;;5075966;28;20032;-79
2022/03/24 09:43:15;;;;;;;13.90;7.68;;;13.00;89.40;;;;;;5093659;28;20031;-79
2022/03/24 09:45:46;;;;;;;11.18;7.53;;;13.10;89.20;;;;;;5093357;28;20047;-79
2022/03/24 09:48:12;;;;;;;17.90;7.70;;;13.10;88.80;;;;;;5075218;28;20028;-79
2022/03/24 09:50:38;;;;;;;11.35;8.07;;;13.10;88.70;;;;;;5075039;28;20031;-79
2022/03/24 09:53:05;;;;;;;11.85;8.23;;;13.20;88.70;;;;;;5093343;28;20356;-79
2022/03/24 09:55:32;;;;;;;12.77;8.25;;;13.20;88.10;;;;;;5093273;28;20020;-79
2022/03/24 09:57:59;;;;;;;10.65;7.43;;;13.30;87.90;;;;;;5075067;28;20020;-79
2022/03/24 10:00:25;;;;;;;10.98;7.85;;;13.30;87.60;;;;;;5075022;28;20127;-79
2022/03/24 10:03:15;;;;;;;13.95;8.18;;;13.30;88.10;;;;;;5093424;28;20099;-79
2022/03/24 10:05:59;;;;;;;13.70;8.98;;;13.30;87.20;;;;;;5093092;28;20020;-79
2022/03/24 10:08:26;;;;;;;10.65;8.27;;;13.40;86.80;;;;;;5074865;28;20110;-79
2022/03/24 10:11:08;;;;;;;11.65;8.35;;;13.50;86.40;;;;;;5074776;28;20051;-79
2022/03/24 10:13:54;;;;;;;11.05;7.88;;;13.50;86.60;;;;;;5075693;28;20455;-79
2022/03/24 10:16:41;;;;;;;11.30;8.05;;;13.50;86.50;;;;;;5092990;28;20360;-78
2022/03/24 10:19:09;;;;;;;11.32;8.40;;;13.60;86.20;;;;;;5074701;28;20020;-79
2022/03/24 10:21:37;;;;;;;15.82;8.20;;;13.60;85.90;;;;;;5074550;28;20048;-78
2022/03/24 10:24:10;;;;;;;12.30;8.07;;;13.60;86.20;;;;;;5097035;28;20031;-78
2022/03/24 10:27:03;;;;;;;10.57;7.82;;;13.60;86.20;;;;;;5079049;28;20077;-79
2022/03/24 10:29:30;;;;;;;14.10;8.40;;;13.60;85.70;;;;;;5097340;28;20024;-79
2022/03/24 10:31:58;;;;;;;12.40;8.07;;;13.60;85.50;;;;;;5078779;28;20035;-78
2022/03/24 10:34:46;;;;;;;17.30;8.85;;;13.60;85.50;;;;;;5078849;28;20040;-78
2022/03/24 10:37:19;;;;;;;13.35;8.27;;;13.60;85.50;;;;;;5096937;28;20020;-79
2022/03/24 10:40:02;;;;;;;12.23;8.27;;;13.70;85.70;;;;;;5078773;28;20494;-78
2022/03/24 10:42:29;;;;;;;11.70;7.80;;;13.70;85.00;;;;;;5078719;28;20024;-79
2022/03/24 10:45:06;;;;;;;10.45;7.80;;;13.70;85.20;;;;;;5096888;28;20110;-78
2022/03/24 10:47:51;;;;;;;12.30;8.02;;;13.80;84.80;;;;;;5096730;28;20540;-79
2022/03/24 10:50:29;;;;;;;11.75;8.32;;;13.70;84.40;;;;;;5096889;28;20435;-79
2022/03/24 10:53:01;;;;;;;10.82;7.50;;;13.80;84.70;;;;;;5096652;28;20012;-78
2022/03/24 10:55:44;;;;;;;13.27;8.52;;;13.80;85.10;;;;;;5096823;28;20024;-79
2022/03/24 10:58:33;;;;;;;13.77;8.65;;;13.80;84.40;;;;;;5078209;28;20016;-79
2022/03/24 11:01:06;;;;;;;12.95;7.57;;;13.80;84.50;;;;;;5078143;28;20070;-79
2022/03/24 11:03:32;;;;;;;11.13;8.00;;;13.90;84.40;;;;;;5096442;28;20028;-79
2022/03/24 11:06:08;;;;;;;10.35;7.18;;;13.90;84.10;;;;;;5078193;28;20502;-79
2022/03/24 11:08:35;;;;;;;12.85;7.75;;;13.90;83.90;;;;;;5078219;28;20036;-79
2022/03/24 11:11:06;;;;;;;11.32;7.95;;;13.90;84.20;;;;;;5079024;28;20431;-79
2022/03/24 11:13:43;;;;;;;16.63;8.20;;;14.00;84.00;;;;;;5096520;28;20146;-79
2022/03/24 11:16:11;;;;;;;11.48;7.32;;;14.00;83.30;;;;;;5096453;28;20063;-79
2022/03/24 11:18:38;;;;;;;12.05;7.70;;;14.00;83.80;;;;;;5096306;28;20016;-79
2022/03/24 11:21:16;;;;;;;11.52;7.68;;;14.10;83.60;;;;;;5096093;28;20530;-79
2022/03/24 11:23:44;;;;;;;10.15;7.28;;;14.10;83.10;;;;;;5077846;28;20494;-79
2022/03/24 11:26:11;;;;;;;14.88;8.40;;;14.10;83.30;;;;;;5096025;28;20476;-79
2022/03/24 11:28:37;;;;;;;13.82;7.70;;;14.10;82.80;;;;;;5077747;28;20453;-79
2022/03/24 11:31:15;;;;;;;12.73;7.72;;;14.10;83.20;;;;;;5095806;28;20106;-79
2022/03/24 11:33:47;;;;;;;11.45;7.45;;;14.20;83.30;;;;;;5077370;28;20027;-79
2022/03/24 11:36:19;;;;;;;11.07;8.57;;;14.20;83.20;;;;;;5095746;28;20048;-79
2022/03/24 11:38:51;;;;;;;17.25;9.00;;;14.20;82.50;;;;;;5095903;28;20016;-79
2022/03/24 11:41:22;;;;;;;12.23;8.45;;;14.20;82.30;;;;;;5095606;28;20032;-79
2022/03/24 11:43:52;;;;;;;13.52;7.90;;;14.20;82.00;;;;;;5077408;28;20020;-79
2022/03/24 11:46:41;;;;;;;13.93;7.97;;;14.20;82.40;;;;;;5095688;28;20387;-79
2022/03/24 11:49:25;;;;;;;13.63;8.45;;;14.20;82.70;;;;;;5095647;28;20123;-79
2022/03/24 11:52:10;;;;;;;12.73;8.43;;;14.30;83.20;;;;;;5077399;28;20028;-79
2022/03/24 11:54:39;;;;;;;14.77;9.63;;;14.20;82.80;;;;;;5077181;28;20391;-79
2022/03/24 11:57:33;;;;;;;12.73;8.55;;;14.30;82.40;;;;;;5095459;28;20410;-79
2022/03/24 12:00:14;;;;;;;11.65;8.63;;;14.40;82.10;;;;;;5077152;28;20020;-79
2022/03/24 12:02:43;;;;;;;13.95;8.57;;;14.40;81.60;;;;;;5077240;28;20035;-79
2022/03/24 12:05:10;;;;;;;12.05;8.07;;;14.40;82.00;;;;;;5077118;28;20086;-79
2022/03/24 12:07:37;;;;;;;14.68;8.65;;;14.40;82.10;;;;;;5095479;28;20012;-79
2022/03/24 12:10:10;;;;;;;11.15;8.65;;;14.40;82.30;;;;;;5077033;28;20121;-79
2022/03/24 12:12:37;;;;;;;11.63;7.50;;;14.40;82.30;;;;;;5077002;28;20094;-78
2022/03/24 12:15:15;;;;;;;12.45;8.80;;;14.40;82.50;;;;;;5077309;28;20028;-79
2022/03/24 12:18:04;;;;;;;14.38;8.73;;;14.40;83.10;;;;;;5076952;28;20016;-79
2022/03/24 12:20:43;;;;;;;12.30;9.00;;;14.40;82.40;;;;;;5076733;28;20074;-79
2022/03/24 12:23:10;;;;;;;16.20;8.20;;;14.40;82.00;;;;;;5076845;28;20443;-79
2022/03/24 12:25:38;;;;;;;12.43;8.43;;;14.40;82.30;;;;;;5076817;28;20115;-79
2022/03/24 12:28:07;;;;;;;11.55;8.35;;;14.50;82.00;;;;;;5076818;28;20035;-79
2022/03/24 12:30:53;;;;;;;12.40;8.73;;;14.50;81.70;;;;;;5076573;28;20119;-79
2022/03/24 12:33:39;;;;;;;12.40;8.43;;;14.60;81.40;;;;;;5076030;28;20024;-79
2022/03/24 12:36:06;;;;;;;11.73;8.82;;;14.60;81.20;;;;;;5094640;28;20020;-79
2022/03/24 12:38:34;;;;;;;13.75;9.27;;;14.70;81.00;;;;;;5076596;28;20024;-79
2022/03/24 12:41:06;;;;;;;10.70;8.43;;;14.70;80.70;;;;;;5076408;28;20387;-79
2022/03/24 12:43:49;;;;;;;13.57;8.65;;;14.70;81.10;;;;;;5094561;28;20070;-79
2022/03/24 12:46:26;;;;;;;16.63;8.70;;;14.80;81.30;;;;;;5075306;28;20034;-79